Time;durP1;ratioP1;P1;durP2;ratioP2;P2;SDS_P1;SDS_P2;PMS_P1;PMS_P2;Temp;Humidity;BMP_temperature;BMP_pressure;BME280_temperature;BME280_humidity;BME280_pressure;Samples;Min_cycle;Max_cycle;Signal;HPM_P1;HPM_P2
2022/09/15 00:01:54;;;;;;;;;;;;;;;;;;5009427;28;19924;-61
2022/09/15 00:04:20;;;;;;;;;;;;;;;;;;5011217;28;19918;-62
2022/09/15 00:06:45;;;;;;;;;;;;;;;;;;5041810;28;19923;-62
2022/09/15 00:09:10;;;;;;;;;;;;;;;;;;5008600;28;20288;-61
2022/09/15 00:11:36;;;;;;;;;;;;;;;;;;5007554;28;19914;-62
2022/09/15 00:14:02;;;;;;;;;;;;;;;;;;5010103;28;20307;-61
2022/09/15 00:16:29;;;;;;;;;;;;;;;;;;5010156;28;19945;-62
2022/09/15 00:18:55;;;;;;;;;;;;;;;;;;5010250;28;19979;-62
2022/09/15 00:21:26;;;;;;;;;;;;;;;;;;5009773;28;20349;-62
2022/09/15 00:23:52;;;;;;;;;;;;;;;;;;5010571;28;19913;-62
2022/09/15 00:26:19;;;;;;;;;;;;;;;;;;5008706;28;19916;-62
2022/09/15 00:28:44;;;;;;;;;;;;;;;;;;5010002;28;19926;-61
2022/09/15 00:31:11;;;;;;;;;;;;;;;;;;5009998;28;19925;-62
2022/09/15 00:33:37;;;;;;;;;;;;;;;;;;5010114;28;20422;-62
2022/09/15 00:36:04;;;;;;;;;;;;;;;;;;5009958;28;19914;-61
2022/09/15 00:38:31;;;;;;;;;;;;;;;;;;5010579;28;20505;-62
2022/09/15 00:40:56;;;;;;;;;;;;;;;;;;5008924;28;19917;-61
2022/09/15 00:43:40;;;;;;;;;;;;;;;;;;5007539;28;19924;-62
2022/09/15 00:46:06;;;;;;;;;;;;;;;;;;5010209;28;19924;-62
2022/09/15 00:48:32;;;;;;;;;;;;;;;;;;5008299;28;19937;-62
2022/09/15 00:50:58;;;;;;;;;;;;;;;;;;5009380;28;19967;-62
2022/09/15 00:53:24;;;;;;;;;;;;;;;;;;5009678;28;20417;-62
2022/09/15 00:55:50;;;;;;;;;;;;;;;;;;5009359;28;19917;-61
2022/09/15 00:58:19;;;;;;;;;;;;;;;;;;5009587;28;19925;-61
2022/09/15 01:00:48;;;;;;;;;;;;;;;;;;5009960;28;19949;-62
2022/09/15 01:03:14;;;;;;;;;;;;;;;;;;5009480;28;20380;-62
2022/09/15 01:05:42;;;;;;;;;;;;;;;;;;5005580;28;20563;-62
2022/09/15 01:08:10;;;;;;;;;;;;;;;;;;5009866;28;19928;-62
2022/09/15 01:10:39;;;;;;;;;;;;;;;;;;5009293;28;19921;-61
2022/09/15 01:13:06;;;;;;;;;;;;;;;;;;5003693;28;19921;-62
2022/09/15 01:15:38;;;;;;;;;;;;;;;;;;4989926;28;20283;-62
2022/09/15 01:18:06;;;;;;;;;;;;;;;;;;4989805;28;19922;-62
2022/09/15 01:20:50;;;;;;;;;;;;;;;;;;5001012;28;19920;-62
2022/09/15 01:23:18;;;;;;;;;;;;;;;;;;5006962;28;19917;-61
2022/09/15 01:25:59;;;;;;;;;;;;;;;;;;5009330;28;19953;-61
2022/09/15 01:28:33;;;;;;;;;;;;;;;;;;5008567;28;19967;-61
2022/09/15 01:31:14;;;;;;;;;;;;;;;;;;5039318;28;19980;-61
2022/09/15 01:33:45;;;;;;;;;;;;;;;;;;5009270;28;19966;-62
2022/09/15 01:36:11;;;;;;;;;;;;;;;;;;5009208;28;20339;-62
2022/09/15 01:38:40;;;;;;;;;;;;;;;;;;5040800;28;20425;-61
2022/09/15 01:41:18;;;;;;;;;;;;;;;;;;5009106;28;20486;-62
2022/09/15 01:43:52;;;;;;;;;;;;;;;;;;5009042;28;19921;-62
2022/09/15 01:46:19;;;;;;;;;;;;;;;;;;5008805;28;19917;-61
2022/09/15 01:48:46;;;;;;;;;;;;;;;;;;5008658;28;20016;-62
2022/09/15 01:51:12;;;;;;;;;;;;;;;;;;5002887;28;19924;-62
2022/09/15 01:53:38;;;;;;;;;;;;;;;;;;5007741;28;19925;-62
2022/09/15 01:56:07;;;;;;;;;;;;;;;;;;5040732;28;19925;-62
2022/09/15 01:58:33;;;;;;;;;;;;;;;;;;5008679;28;19925;-61
2022/09/15 02:01:11;;;;;;;;;;;;;;;;;;5000509;28;19929;-62
2022/09/15 02:03:55;;;;;;;;;;;;;;;;;;5007483;28;20357;-62
2022/09/15 02:06:24;;;;;;;;;;;;;;;;;;5040536;28;19925;-62
2022/09/15 02:09:01;;;;;;;;;;;;;;;;;;5008868;28;20300;-62
2022/09/15 02:11:27;;;;;;;;;;;;;;;;;;5008916;28;19909;-61
2022/09/15 02:13:59;;;;;;;;;;;;;;;;;;5004922;28;19918;-61
2022/09/15 02:16:26;;;;;;;;;;;;;;;;;;5008424;28;19917;-62
2022/09/15 02:19:10;;;;;;;;;;;;;;;;;;5007964;28;19956;-62
2022/09/15 02:21:43;;;;;;;;;;;;;;;;;;5008547;28;19917;-61
2022/09/15 02:24:15;;;;;;;;;;;;;;;;;;5008423;28;20371;-61
2022/09/15 02:26:41;;;;;;;;;;;;;;;;;;5006533;28;19914;-61
2022/09/15 02:29:08;;;;;;;;;;;;;;;;;;5007805;28;19925;-62
2022/09/15 02:31:35;;;;;;;;;;;;;;;;;;5008354;28;20402;-62
2022/09/15 02:34:09;;;;;;;;;;;;;;;;;;5007995;28;19922;-61
2022/09/15 02:36:34;;;;;;;;;;;;;;;;;;5008085;28;19929;-62
2022/09/15 02:39:02;;;;;;;;;;;;;;;;;;5007944;28;19913;-62
2022/09/15 02:41:27;;;;;;;;;;;;;;;;;;5008430;28;19920;-61
2022/09/15 02:43:53;;;;;;;;;;;;;;;;;;5007109;28;19926;-62
2022/09/15 02:46:19;;;;;;;;;;;;;;;;;;5008103;28;20000;-62
2022/09/15 02:48:45;;;;;;;;;;;;;;;;;;5007559;28;19929;-62
2022/09/15 02:51:11;;;;;;;;;;;;;;;;;;5006875;28;19972;-62
2022/09/15 02:53:36;;;;;;;;;;;;;;;;;;5007646;28;19967;-62
2022/09/15 02:56:04;;;;;;;;;;;;;;;;;;5007929;28;19917;-62
2022/09/15 02:58:30;;;;;;;;;;;;;;;;;;5007873;28;19917;-62
2022/09/15 03:00:55;;;;;;;;;;;;;;;;;;5007656;28;19925;-62
2022/09/15 03:03:21;;;;;;;;;;;;;;;;;;5007958;28;19918;-61
2022/09/15 03:05:46;;;;;;;;;;;;;;;;;;5003507;28;19941;-61
2022/09/15 03:08:11;;;;;;;;;;;;;;;;;;4992145;28;19922;-61
2022/09/15 03:10:36;;;;;;;;;;;;;;;;;;4991836;28;20458;-62
2022/09/15 03:13:02;;;;;;;;;;;;;;;;;;4992467;28;19928;-61
2022/09/15 03:15:27;;;;;;;;;;;;;;;;;;4991781;28;19921;-62
2022/09/15 03:17:52;;;;;;;;;;;;;;;;;;4992180;28;19982;-62
2022/09/15 03:20:19;;;;;;;;;;;;;;;;;;4992741;28;19910;-62
2022/09/15 03:22:45;;;;;;;;;;;;;;;;;;5006575;28;19925;-61
2022/09/15 03:25:10;;;;;;;;;;;;;;;;;;5011712;28;20342;-61
2022/09/15 03:27:36;;;;;;;;;;;;;;;;;;5011868;28;20412;-62
2022/09/15 03:30:01;;;;;;;;;;;;;;;;;;5010996;28;19924;-61
2022/09/15 03:32:26;;;;;;;;;;;;;;;;;;5011794;28;19924;-62
2022/09/15 03:34:52;;;;;;;;;;;;;;;;;;5010956;28;19924;-61
2022/09/15 03:37:17;;;;;;;;;;;;;;;;;;5043304;28;19970;-61
2022/09/15 03:39:42;;;;;;;;;;;;;;;;;;5011467;28;19925;-61
2022/09/15 03:42:07;;;;;;;;;;;;;;;;;;5011391;28;19921;-62
2022/09/15 03:44:33;;;;;;;;;;;;;;;;;;5011563;28;19917;-61
2022/09/15 03:46:58;;;;;;;;;;;;;;;;;;5011158;28;19928;-62
2022/09/15 03:49:24;;;;;;;;;;;;;;;;;;5010560;28;19935;-62
2022/09/15 03:51:49;;;;;;;;;;;;;;;;;;5010134;28;19917;-62
2022/09/15 03:54:15;;;;;;;;;;;;;;;;;;5011503;28;19921;-61
2022/09/15 03:56:40;;;;;;;;;;;;;;;;;;5010902;28;20398;-62
2022/09/15 03:59:05;;;;;;;;;;;;;;;;;;5011306;28;19932;-61
2022/09/15 04:01:31;;;;;;;;;;;;;;;;;;5011031;28;19922;-62
2022/09/15 04:03:56;;;;;;;;;;;;;;;;;;5010681;28;19953;-62
2022/09/15 04:06:22;;;;;;;;;;;;;;;;;;5010708;28;19922;-61
2022/09/15 04:08:48;;;;;;;;;;;;;;;;;;5010445;28;19914;-62
2022/09/15 04:11:14;;;;;;;;;;;;;;;;;;5011024;28;20581;-62
2022/09/15 04:13:40;;;;;;;;;;;;;;;;;;5009930;28;19924;-62
2022/09/15 04:16:10;;;;;;;;;;;;;;;;;;5009867;28;19967;-62
2022/09/15 04:18:35;;;;;;;;;;;;;;;;;;5009874;28;20072;-62
2022/09/15 04:21:02;;;;;;;;;;;;;;;;;;5010505;28;20052;-62
2022/09/15 04:23:27;;;;;;;;;;;;;;;;;;5011092;28;19917;-61
2022/09/15 04:25:56;;;;;;;;;;;;;;;;;;5009857;28;19925;-61
2022/09/15 04:28:22;;;;;;;;;;;;;;;;;;5010524;28;19932;-62
2022/09/15 04:30:47;;;;;;;;;;;;;;;;;;5009933;28;19922;-61
2022/09/15 04:33:12;;;;;;;;;;;;;;;;;;5010508;28;20551;-62
2022/09/15 04:35:38;;;;;;;;;;;;;;;;;;5010477;28;19944;-61
2022/09/15 04:38:03;;;;;;;;;;;;;;;;;;5042018;28;19926;-61
2022/09/15 04:40:28;;;;;;;;;;;;;;;;;;5010097;28;19918;-61
2022/09/15 04:42:53;;;;;;;;;;;;;;;;;;5010128;28;19921;-62
2022/09/15 04:45:19;;;;;;;;;;;;;;;;;;5010200;28;19924;-61
2022/09/15 04:47:47;;;;;;;;;;;;;;;;;;5010395;28;19924;-61
2022/09/15 04:50:12;;;;;;;;;;;;;;;;;;5009908;28;20023;-61
2022/09/15 04:52:37;;;;;;;;;;;;;;;;;;5009892;28;20363;-62
2022/09/15 04:55:03;;;;;;;;;;;;;;;;;;5009512;28;19929;-61
2022/09/15 04:57:28;;;;;;;;;;;;;;;;;;5010055;28;19967;-62
2022/09/15 04:59:53;;;;;;;;;;;;;;;;;;5006317;28;19928;-62
2022/09/15 05:02:18;;;;;;;;;;;;;;;;;;5000660;28;19918;-61
2022/09/15 05:04:46;;;;;;;;;;;;;;;;;;5005212;28;19925;-62
2022/09/15 05:07:11;;;;;;;;;;;;;;;;;;5008883;28;19921;-61
2022/09/15 05:09:37;;;;;;;;;;;;;;;;;;5012832;28;19956;-61
2022/09/15 05:12:02;;;;;;;;;;;;;;;;;;5029505;28;19971;-61
2022/09/15 05:14:27;;;;;;;;;;;;;;;;;;5029689;28;19924;-62
2022/09/15 05:16:52;;;;;;;;;;;;;;;;;;5029248;28;20175;-61
2022/09/15 05:19:18;;;;;;;;;;;;;;;;;;5029201;28;20349;-62
2022/09/15 05:21:43;;;;;;;;;;;;;;;;;;5029153;28;19921;-62
2022/09/15 05:24:08;;;;;;;;;;;;;;;;;;5028732;28;19917;-62
2022/09/15 05:26:34;;;;;;;;;;;;;;;;;;5012405;28;19963;-64
2022/09/15 05:28:59;;;;;;;;;;;;;;;;;;5007167;28;20353;-62
2022/09/15 05:31:25;;;;;;;;;;;;;;;;;;5009645;28;19925;-61
2022/09/15 05:33:52;;;;;;;;;;;;;;;;;;5008685;28;20020;-62
2022/09/15 05:36:19;;;;;;;;;;;;;;;;;;5008840;28;19921;-61
2022/09/15 05:38:44;;;;;;;;;;;;;;;;;;5009555;28;19984;-61
2022/09/15 05:41:10;;;;;;;;;;;;;;;;;;4987485;28;20334;-61
2022/09/15 05:43:36;;;;;;;;;;;;;;;;;;4990589;28;19941;-61
2022/09/15 05:46:02;;;;;;;;;;;;;;;;;;4989359;28;20319;-61
2022/09/15 05:48:27;;;;;;;;;;;;;;;;;;4989909;28;19956;-61
2022/09/15 05:50:53;;;;;;;;;;;;;;;;;;4989743;28;19921;-62
2022/09/15 05:53:19;;;;;;;;;;;;;;;;;;4990569;28;19957;-62
2022/09/15 05:55:44;;;;;;;;;;;;;;;;;;4989550;28;19953;-62
2022/09/15 05:58:10;;;;;;;;;;;;;;;;;;5008840;28;19969;-62
2022/09/15 06:00:35;;;;;;;;;;;;;;;;;;5007622;28;19921;-62
2022/09/15 06:03:00;;;;;;;;;;;;;;;;;;4996100;28;19924;-62
2022/09/15 06:05:26;;;;;;;;;;;;;;;;;;5001247;28;19941;-62
2022/09/15 06:07:53;;;;;;;;;;;;;;;;;;4997700;28;20064;-62
2022/09/15 06:10:18;;;;;;;;;;;;;;;;;;5005001;28;19925;-62
2022/09/15 06:12:43;;;;;;;;;;;;;;;;;;5008953;28;19922;-62
2022/09/15 06:15:11;;;;;;;;;;;;;;;;;;5008779;28;19968;-63
2022/09/15 06:17:36;;;;;;;;;;;;;;;;;;5041341;28;19913;-62
2022/09/15 06:20:05;;;;;;;;;;;;;;;;;;5005092;28;20417;-62
2022/09/15 06:22:30;;;;;;;;;;;;;;;;;;4998015;28;20008;-62
2022/09/15 06:24:55;;;;;;;;;;;;;;;;;;4992987;28;20024;-63
2022/09/15 06:27:21;;;;;;;;;;;;;;;;;;5009034;28;19987;-62
2022/09/15 06:29:46;;;;;;;;;;;;;;;;;;5006997;28;19967;-62
2022/09/15 06:32:11;;;;;;;;;;;;;;;;;;5009033;28;19917;-62
2022/09/15 06:34:36;;;;;;;;;;;;;;;;;;5008256;28;19918;-62
2022/09/15 06:37:02;;;;;;;;;;;;;;;;;;5007958;28;20022;-62
2022/09/15 06:39:27;;;;;;;;;;;;;;;;;;5007139;28;19917;-62
2022/09/15 06:41:53;;;;;;;;;;;;;;;;;;5004868;28;19924;-62
2022/09/15 06:44:18;;;;;;;;;;;;;;;;;;4993652;28;19909;-62
2022/09/15 06:46:43;;;;;;;;;;;;;;;;;;5005761;28;20069;-62
2022/09/15 06:49:08;;;;;;;;;;;;;;;;;;5029251;28;20674;-62
2022/09/15 06:51:35;;;;;;;;;;;;;;;;;;5001080;28;20348;-62
2022/09/15 06:54:02;;;;;;;;;;;;;;;;;;5000917;28;19948;-62
2022/09/15 06:56:27;;;;;;;;;;;;;;;;;;5001907;28;19921;-62
2022/09/15 06:58:53;;;;;;;;;;;;;;;;;;4990354;28;19929;-62
2022/09/15 07:01:20;;;;;;;;;;;;;;;;;;4995985;28;19934;-62
2022/09/15 07:03:46;;;;;;;;;;;;;;;;;;5001883;28;19921;-62
2022/09/15 07:06:11;;;;;;;;;;;;;;;;;;5004269;28;19931;-62
2022/09/15 07:08:37;;;;;;;;;;;;;;;;;;5007491;28;19914;-62
2022/09/15 07:11:02;;;;;;;;;;;;;;;;;;4991588;28;20341;-62
2022/09/15 07:13:28;;;;;;;;;;;;;;;;;;4994401;28;19960;-62
2022/09/15 07:15:57;;;;;;;;;;;;;;;;;;4988743;28;20373;-62
2022/09/15 07:18:23;;;;;;;;;;;;;;;;;;4996099;28;19929;-62
2022/09/15 07:20:49;;;;;;;;;;;;;;;;;;4992133;28;19971;-61
2022/09/15 07:23:14;;;;;;;;;;;;;;;;;;4996052;28;19926;-62
2022/09/15 07:25:43;;;;;;;;;;;;;;;;;;4992976;28;19921;-62
2022/09/15 07:28:12;;;;;;;;;;;;;;;;;;4992815;28;19922;-62
2022/09/15 07:30:38;;;;;;;;;;;;;;;;;;4990270;28;19932;-62
2022/09/15 07:33:04;;;;;;;;;;;;;;;;;;4992872;28;21339;-62
2022/09/15 07:35:29;;;;;;;;;;;;;;;;;;4994134;28;19921;-62
2022/09/15 07:37:54;;;;;;;;;;;;;;;;;;4993098;28;20598;-62
2022/09/15 07:40:20;;;;;;;;;;;;;;;;;;4993175;28;20008;-62
2022/09/15 07:42:46;;;;;;;;;;;;;;;;;;4998375;28;19957;-62
2022/09/15 07:45:11;;;;;;;;;;;;;;;;;;5002765;28;19929;-62
2022/09/15 07:47:36;;;;;;;;;;;;;;;;;;4999080;28;19932;-62
2022/09/15 07:50:02;;;;;;;;;;;;;;;;;;5000664;28;19980;-62
2022/09/15 07:52:27;;;;;;;;;;;;;;;;;;4998287;28;19929;-62
2022/09/15 07:54:52;;;;;;;;;;;;;;;;;;4989500;28;20540;-62
2022/09/15 07:57:17;;;;;;;;;;;;;;;;;;4999361;28;20363;-62
2022/09/15 07:59:42;;;;;;;;;;;;;;;;;;5002595;28;19918;-62
2022/09/15 08:02:18;;;;;;;;;;;;;;;;;;4999562;28;19922;-62
2022/09/15 08:04:43;;;;;;;;;;;;;;;;;;5010262;28;19924;-62
2022/09/15 08:07:08;;;;;;;;;;;;;;;;;;5004984;28;19918;-62
2022/09/15 08:09:35;;;;;;;;;;;;;;;;;;5001347;28;19930;-62
2022/09/15 08:12:01;;;;;;;;;;;;;;;;;;5010208;28;19917;-62
2022/09/15 08:14:26;;;;;;;;;;;;;;;;;;5004745;28;19968;-62
2022/09/15 08:16:51;;;;;;;;;;;;;;;;;;5005848;28;19925;-62
2022/09/15 08:19:17;;;;;;;;;;;;;;;;;;5008678;28;20433;-62
2022/09/15 08:21:42;;;;;;;;;;;;;;;;;;5002436;28;19922;-62
2022/09/15 08:24:08;;;;;;;;;;;;;;;;;;5007453;28;19929;-62
2022/09/15 08:26:35;;;;;;;;;;;;;;;;;;5009018;28;20508;-62
2022/09/15 08:29:01;;;;;;;;;;;;;;;;;;5007968;28;19926;-62
2022/09/15 08:31:26;;;;;;;;;;;;;;;;;;5008330;28;19940;-62
2022/09/15 08:33:52;;;;;;;;;;;;;;;;;;5006230;28;19917;-62
2022/09/15 08:36:17;;;;;;;;;;;;;;;;;;4995667;28;19925;-62
2022/09/15 08:38:43;;;;;;;;;;;;;;;;;;4998207;28;19918;-62
2022/09/15 08:41:11;;;;;;;;;;;;;;;;;;4992957;28;19922;-62
2022/09/15 08:43:39;;;;;;;;;;;;;;;;;;4989614;28;19932;-62
2022/09/15 08:46:06;;;;;;;;;;;;;;;;;;4993723;28;20043;-62
2022/09/15 08:48:42;;;;;;;;;;;;;;;;;;4997950;28;19936;-62
2022/09/15 08:51:14;;;;;;;;;;;;;;;;;;4989189;28;19996;-62
2022/09/15 08:53:48;;;;;;;;;;;;;;;;;;4990045;28;19961;-62
2022/09/15 08:56:16;;;;;;;;;;;;;;;;;;5002542;28;19924;-62
2022/09/15 08:58:41;;;;;;;;;;;;;;;;;;5002282;28;19922;-62
2022/09/15 09:01:10;;;;;;;;;;;;;;;;;;5033384;28;20595;-62
2022/09/15 09:03:41;;;;;;;;;;;;;;;;;;4999553;28;19926;-62
2022/09/15 09:06:25;;;;;;;;;;;;;;;;;;4991644;28;20458;-62
2022/09/15 09:08:50;;;;;;;;;;;;;;;;;;4999434;28;19953;-62
2022/09/15 09:11:20;;;;;;;;;;;;;;;;;;5008439;28;19937;-62
2022/09/15 09:13:48;;;;;;;;;;;;;;;;;;5008446;28;19921;-62
2022/09/15 09:16:16;;;;;;;;;;;;;;;;;;5008182;28;19951;-62
2022/09/15 09:19:00;;;;;;;;;;;;;;;;;;4998914;28;19980;-62
2022/09/15 09:21:31;;;;;;;;;;;;;;;;;;4991575;28;20039;-62
2022/09/15 09:24:01;;;;;;;;;;;;;;;;;;5020856;28;19925;-62
2022/09/15 09:26:28;;;;;;;;;;;;;;;;;;5005672;28;20460;-62
2022/09/15 09:28:58;;;;;;;;;;;;;;;;;;5007845;28;19968;-62
2022/09/15 09:31:24;;;;;;;;;;;;;;;;;;5009059;28;20382;-62
2022/09/15 09:33:57;;;;;;;;;;;;;;;;;;5008412;28;19924;-63
2022/09/15 09:36:23;;;;;;;;;;;;;;;;;;5008946;28;19917;-62
2022/09/15 09:38:48;;;;;;;;;;;;;;;;;;5007624;28;19932;-63
2022/09/15 09:41:18;;;;;;;;;;;;;;;;;;5027891;28;20334;-62
2022/09/15 09:43:45;;;;;;;;;;;;;;;;;;5028064;28;19921;-62
2022/09/15 09:46:15;;;;;;;;;;;;;;;;;;5028027;28;19923;-62
2022/09/15 09:48:43;;;;;;;;;;;;;;;;;;5027451;28;20013;-62
2022/09/15 09:51:27;;;;;;;;;;;;;;;;;;5027746;28;19929;-62
2022/09/15 09:53:52;;;;;;;;;;;;;;;;;;5027759;28;20389;-62
2022/09/15 09:56:25;;;;;;;;;;;;;;;;;;5028709;28;19916;-62
2022/09/15 09:58:51;;;;;;;;;;;;;;;;;;5027979;28;19924;-62
2022/09/15 10:01:17;;;;;;;;;;;;;;;;;;5027126;28;19917;-62
2022/09/15 10:03:44;;;;;;;;;;;;;;;;;;5028252;28;19917;-62
2022/09/15 10:06:21;;;;;;;;;;;;;;;;;;5027489;28;20064;-62
2022/09/15 10:08:54;;;;;;;;;;;;;;;;;;5028369;28;19944;-63
2022/09/15 10:11:19;;;;;;;;;;;;;;;;;;5028290;28;20339;-63
2022/09/15 10:13:53;;;;;;;;;;;;;;;;;;5028006;28;20449;-62
2022/09/15 10:16:19;;;;;;;;;;;;;;;;;;5026484;28;20442;-63
2022/09/15 10:18:45;;;;;;;;;;;;;;;;;;5028116;28;20015;-62
2022/09/15 10:21:12;;;;;;;;;;;;;;;;;;5025754;28;20691;-62
2022/09/15 10:23:37;;;;;;;;;;;;;;;;;;5018461;28;20393;-63
2022/09/15 10:26:15;;;;;;;;;;;;;;;;;;5027458;28;19943;-62
2022/09/15 10:28:40;;;;;;;;;;;;;;;;;;5027566;28;19918;-63
2022/09/15 10:31:05;;;;;;;;;;;;;;;;;;5026479;28;19925;-62
2022/09/15 10:33:33;;;;;;;;;;;;;;;;;;5027393;28;20064;-63
2022/09/15 10:36:04;;;;;;;;;;;;;;;;;;5027044;28;19917;-62
2022/09/15 10:38:39;;;;;;;;;;;;;;;;;;5010304;28;19996;-62
2022/09/15 10:41:07;;;;;;;;;;;;;;;;;;5007533;28;19941;-62
2022/09/15 10:43:55;;;;;;;;;;;;;;;;;;5007304;28;19944;-63
2022/09/15 10:46:24;;;;;;;;;;;;;;;;;;5007172;28;19924;-62
2022/09/15 10:49:08;;;;;;;;;;;;;;;;;;5007570;28;19937;-63
2022/09/15 10:51:52;;;;;;;;;;;;;;;;;;5007170;28;19926;-62
2022/09/15 10:54:41;;;;;;;;;;;;;;;;;;5007964;28;19925;-62
2022/09/15 10:57:16;;;;;;;;;;;;;;;;;;5020486;28;19913;-62
2022/09/15 10:59:47;;;;;;;;;;;;;;;;;;5027432;28;19943;-62
2022/09/15 11:02:18;;;;;;;;;;;;;;;;;;5027492;28;19917;-62
2022/09/15 11:04:49;;;;;;;;;;;;;;;;;;5021938;28;20287;-62
2022/09/15 11:07:18;;;;;;;;;;;;;;;;;;5026211;28;19991;-62
2022/09/15 11:09:47;;;;;;;;;;;;;;;;;;5027237;28;19928;-62
2022/09/15 11:12:29;;;;;;;;;;;;;;;;;;5027778;28;19913;-62
2022/09/15 11:15:00;;;;;;;;;;;;;;;;;;5019793;28;19917;-62
2022/09/15 11:17:33;;;;;;;;;;;;;;;;;;5026876;28;20302;-63
2022/09/15 11:19:58;;;;;;;;;;;;;;;;;;5027154;28;19929;-62
2022/09/15 11:22:27;;;;;;;;;;;;;;;;;;5019815;28;19920;-62
2022/09/15 11:24:55;;;;;;;;;;;;;;;;;;5023327;28;19921;-62
2022/09/15 11:27:29;;;;;;;;;;;;;;;;;;5029978;28;20043;-62
2022/09/15 11:30:06;;;;;;;;;;;;;;;;;;5031040;28;19943;-62
2022/09/15 11:32:48;;;;;;;;;;;;;;;;;;5013507;28;20008;-62
2022/09/15 11:35:35;;;;;;;;;;;;;;;;;;5030721;28;19943;-63
2022/09/15 11:38:24;;;;;;;;;;;;;;;;;;5023546;28;19944;-62
2022/09/15 11:40:53;;;;;;;;;;;;;;;;;;5031274;28;19917;-62
2022/09/15 11:43:33;;;;;;;;;;;;;;;;;;5030700;28;19944;-62
2022/09/15 11:46:00;;;;;;;;;;;;;;;;;;5024362;28;19932;-62
2022/09/15 11:48:29;;;;;;;;;;;;;;;;;;5030324;28;19975;-62
2022/09/15 11:50:58;;;;;;;;;;;;;;;;;;5030894;28;19917;-62
2022/09/15 11:53:23;;;;;;;;;;;;;;;;;;5017422;28;20623;-62
2022/09/15 11:55:58;;;;;;;;;;;;;;;;;;5010824;28;20012;-62
2022/09/15 11:58:56;;;;;;;;;;;;;;;;;;5010833;28;19917;-62
2022/09/15 12:01:28;;;;;;;;;;;;;;;;;;5009289;28;19933;-62
2022/09/15 12:03:53;;;;;;;;;;;;;;;;;;5010688;28;19926;-62
2022/09/15 12:06:34;;;;;;;;;;;;;;;;;;5010205;28;19913;-62
2022/09/15 12:09:00;;;;;;;;;;;;;;;;;;5010632;28;19912;-62
2022/09/15 12:11:27;;;;;;;;;;;;;;;;;;5011078;28;19972;-62
2022/09/15 12:13:53;;;;;;;;;;;;;;;;;;5010215;28;19987;-62
2022/09/15 12:16:20;;;;;;;;;;;;;;;;;;5027486;28;20344;-62
2022/09/15 12:18:45;;;;;;;;;;;;;;;;;;5030414;28;20384;-62
2022/09/15 12:21:29;;;;;;;;;;;;;;;;;;5030669;28;20393;-62
2022/09/15 12:24:06;;;;;;;;;;;;;;;;;;5019755;28;19921;-62
2022/09/15 12:26:32;;;;;;;;;;;;;;;;;;5026133;28;19956;-62
2022/09/15 12:29:01;;;;;;;;;;;;;;;;;;5029147;28;20313;-62
2022/09/15 12:31:28;;;;;;;;;;;;;;;;;;5029791;28;20433;-62
2022/09/15 12:33:56;;;;;;;;;;;;;;;;;;5030037;28;19929;-62
2022/09/15 12:36:32;;;;;;;;;;;;;;;;;;5024882;28;19920;-62
2022/09/15 12:38:58;;;;;;;;;;;;;;;;;;5022056;28;19918;-62
2022/09/15 12:41:24;;;;;;;;;;;;;;;;;;5010249;28;19917;-62
2022/09/15 12:43:52;;;;;;;;;;;;;;;;;;5009958;28;19918;-62
2022/09/15 12:46:17;;;;;;;;;;;;;;;;;;5024305;28;19928;-62
2022/09/15 12:48:43;;;;;;;;;;;;;;;;;;5028396;28;19925;-62
2022/09/15 12:51:09;;;;;;;;;;;;;;;;;;5031346;28;19917;-61
2022/09/15 12:53:51;;;;;;;;;;;;;;;;;;5030797;28;19931;-61
2022/09/15 12:56:21;;;;;;;;;;;;;;;;;;5030946;28;19917;-62
2022/09/15 12:58:47;;;;;;;;;;;;;;;;;;5030900;28;19921;-62
2022/09/15 13:01:21;;;;;;;;;;;;;;;;;;5027092;28;19917;-62
2022/09/15 13:03:49;;;;;;;;;;;;;;;;;;5024089;28;19918;-62
2022/09/15 13:06:15;;;;;;;;;;;;;;;;;;5028928;28;19913;-62
2022/09/15 13:08:42;;;;;;;;;;;;;;;;;;5028747;28;19927;-62
2022/09/15 13:11:09;;;;;;;;;;;;;;;;;;5026883;28;19921;-61
2022/09/15 13:13:42;;;;;;;;;;;;;;;;;;5026570;28;19928;-62
2022/09/15 13:16:12;;;;;;;;;;;;;;;;;;5026321;28;19917;-62
2022/09/15 13:18:39;;;;;;;;;;;;;;;;;;5026154;28;19913;-62
2022/09/15 13:21:06;;;;;;;;;;;;;;;;;;5022222;28;19924;-61
2022/09/15 13:23:34;;;;;;;;;;;;;;;;;;5019306;28;19944;-62
2022/09/15 13:26:00;;;;;;;;;;;;;;;;;;5019311;28;19967;-61
2022/09/15 13:28:26;;;;;;;;;;;;;;;;;;5027978;28;19947;-62
2022/09/15 13:30:57;;;;;;;;;;;;;;;;;;5027694;28;19921;-62
2022/09/15 13:33:25;;;;;;;;;;;;;;;;;;5027456;28;20009;-62
2022/09/15 13:35:50;;;;;;;;;;;;;;;;;;5027816;28;19913;-61
2022/09/15 13:38:35;;;;;;;;;;;;;;;;;;5027004;28;19923;-62
2022/09/15 13:41:19;;;;;;;;;;;;;;;;;;5027485;28;19917;-61
2022/09/15 13:44:00;;;;;;;;;;;;;;;;;;5027810;28;19917;-62
2022/09/15 13:46:34;;;;;;;;;;;;;;;;;;5027582;28;20459;-62
2022/09/15 13:49:02;;;;;;;;;;;;;;;;;;5007827;28;19925;-62
2022/09/15 13:51:28;;;;;;;;;;;;;;;;;;5023127;28;20011;-62
2022/09/15 13:54:00;;;;;;;;;;;;;;;;;;5010147;28;20345;-62
2022/09/15 13:56:26;;;;;;;;;;;;;;;;;;5010971;28;19978;-62
2022/09/15 13:58:54;;;;;;;;;;;;;;;;;;5023705;28;19921;-62
2022/09/15 14:01:20;;;;;;;;;;;;;;;;;;5011513;28;20017;-62
2022/09/15 14:03:57;;;;;;;;;;;;;;;;;;5007168;28;19917;-62
2022/09/15 14:06:22;;;;;;;;;;;;;;;;;;5007203;28;20283;-62
2022/09/15 14:08:49;;;;;;;;;;;;;;;;;;5017234;28;19967;-62
2022/09/15 14:11:20;;;;;;;;;;;;;;;;;;5029161;28;19921;-62
2022/09/15 14:13:46;;;;;;;;;;;;;;;;;;5046926;28;19936;-62
2022/09/15 14:16:23;;;;;;;;;;;;;;;;;;5015502;28;19925;-62
2022/09/15 14:18:49;;;;;;;;;;;;;;;;;;5016957;28;19922;-62
2022/09/15 14:21:16;;;;;;;;;;;;;;;;;;5008221;28;20429;-62
2022/09/15 14:23:45;;;;;;;;;;;;;;;;;;5008825;28;20321;-62
2022/09/15 14:26:12;;;;;;;;;;;;;;;;;;5021541;28;20364;-62
2022/09/15 14:28:37;;;;;;;;;;;;;;;;;;5027718;28;19921;-62
2022/09/15 14:31:02;;;;;;;;;;;;;;;;;;5027460;28;20003;-62
2022/09/15 14:33:32;;;;;;;;;;;;;;;;;;5027360;28;20000;-62
2022/09/15 14:35:57;;;;;;;;;;;;;;;;;;5028091;28;19910;-62
2022/09/15 14:38:23;;;;;;;;;;;;;;;;;;5027491;28;19974;-62
2022/09/15 14:40:51;;;;;;;;;;;;;;;;;;5027717;28;20457;-62
2022/09/15 14:43:27;;;;;;;;;;;;;;;;;;5027695;28;19928;-62
2022/09/15 14:45:52;;;;;;;;;;;;;;;;;;5009576;28;19921;-62
2022/09/15 14:48:24;;;;;;;;;;;;;;;;;;5012579;28;19921;-62
2022/09/15 14:50:59;;;;;;;;;;;;;;;;;;5008144;28;20025;-62
2022/09/15 14:53:26;;;;;;;;;;;;;;;;;;5007908;28;19924;-62
2022/09/15 14:55:54;;;;;;;;;;;;;;;;;;5007312;28;19948;-62
2022/09/15 14:58:19;;;;;;;;;;;;;;;;;;5027492;28;20430;-62
2022/09/15 15:00:51;;;;;;;;;;;;;;;;;;5027450;28;19923;-62
2022/09/15 15:03:28;;;;;;;;;;;;;;;;;;5027183;28;19983;-62
2022/09/15 15:05:56;;;;;;;;;;;;;;;;;;5027417;28;19921;-62
2022/09/15 15:08:26;;;;;;;;;;;;;;;;;;5027674;28;19924;-62
2022/09/15 15:10:52;;;;;;;;;;;;;;;;;;5027291;28;19925;-62
2022/09/15 15:13:17;;;;;;;;;;;;;;;;;;5011924;28;20353;-62
2022/09/15 15:15:43;;;;;;;;;;;;;;;;;;5005829;28;19917;-62
2022/09/15 15:18:29;;;;;;;;;;;;;;;;;;5023333;28;19913;-62
2022/09/15 15:20:54;;;;;;;;;;;;;;;;;;5013754;28;19931;-62
2022/09/15 15:23:19;;;;;;;;;;;;;;;;;;5027207;28;20000;-62
2022/09/15 15:25:47;;;;;;;;;;;;;;;;;;5026735;28;20330;-62
2022/09/15 15:28:28;;;;;;;;;;;;;;;;;;5026132;28;19952;-62
2022/09/15 15:31:04;;;;;;;;;;;;;;;;;;5027003;28;19932;-62
2022/09/15 15:33:29;;;;;;;;;;;;;;;;;;5024303;28;19920;-62
2022/09/15 15:36:01;;;;;;;;;;;;;;;;;;5023448;28;19909;-62
2022/09/15 15:38:26;;;;;;;;;;;;;;;;;;5027283;28;20469;-62
2022/09/15 15:40:58;;;;;;;;;;;;;;;;;;5027109;28;19917;-62
2022/09/15 15:43:25;;;;;;;;;;;;;;;;;;5016390;28;19928;-62
2022/09/15 15:46:00;;;;;;;;;;;;;;;;;;5023407;28;19917;-62
2022/09/15 15:48:33;;;;;;;;;;;;;;;;;;5027157;28;19925;-62
2022/09/15 15:50:58;;;;;;;;;;;;;;;;;;5026922;28;20306;-61
2022/09/15 15:53:24;;;;;;;;;;;;;;;;;;5026744;28;19918;-62
2022/09/15 15:55:49;;;;;;;;;;;;;;;;;;5016599;28;20016;-62
2022/09/15 15:58:15;;;;;;;;;;;;;;;;;;5015133;28;19989;-62
2022/09/15 16:00:45;;;;;;;;;;;;;;;;;;5021459;28;20015;-62
2022/09/15 16:03:11;;;;;;;;;;;;;;;;;;5026614;28;19920;-62
2022/09/15 16:05:37;;;;;;;;;;;;;;;;;;5008513;28;20360;-61
2022/09/15 16:08:04;;;;;;;;;;;;;;;;;;5026579;28;20017;-62
2022/09/15 16:10:36;;;;;;;;;;;;;;;;;;5026357;28;20414;-61
2022/09/15 16:13:01;;;;;;;;;;;;;;;;;;5027043;28;19932;-62
2022/09/15 16:15:26;;;;;;;;;;;;;;;;;;5029681;28;19913;-62
2022/09/15 16:17:52;;;;;;;;;;;;;;;;;;5030846;28;19909;-61
2022/09/15 16:20:18;;;;;;;;;;;;;;;;;;5012644;28;19970;-61
2022/09/15 16:22:44;;;;;;;;;;;;;;;;;;5018751;28;19921;-62
2022/09/15 16:25:15;;;;;;;;;;;;;;;;;;5029467;28;19939;-62
2022/09/15 16:27:40;;;;;;;;;;;;;;;;;;5029448;28;19929;-62
2022/09/15 16:30:07;;;;;;;;;;;;;;;;;;5029890;28;19929;-62
2022/09/15 16:32:32;;;;;;;;;;;;;;;;;;5029668;28;20352;-62
2022/09/15 16:34:57;;;;;;;;;;;;;;;;;;5028632;28;20473;-62
2022/09/15 16:37:22;;;;;;;;;;;;;;;;;;5025990;28;20008;-62
2022/09/15 16:39:51;;;;;;;;;;;;;;;;;;5020398;28;19953;-62
2022/09/15 16:42:16;;;;;;;;;;;;;;;;;;5025450;28;19921;-63
2022/09/15 16:44:42;;;;;;;;;;;;;;;;;;5020289;28;19974;-62
2022/09/15 16:47:08;;;;;;;;;;;;;;;;;;5025706;28;19948;-62
2022/09/15 16:49:36;;;;;;;;;;;;;;;;;;5028290;28;20014;-62
2022/09/15 16:52:01;;;;;;;;;;;;;;;;;;5023165;28;19925;-62
2022/09/15 16:54:26;;;;;;;;;;;;;;;;;;5028450;28;20008;-62